sensor_id;sensor_type;location;lat;lon;timestamp;pressure;altitude;pressure_sealevel;temperature;humidity
50226;BME280;36113;50.742;6.432;2023-02-03T00:01:38;146685.66;;;6.89;100.00
50226;BME280;36113;50.742;6.432;2023-02-03T00:04:04;146655.66;;;6.77;100.00
50226;BME280;36113;50.742;6.432;2023-02-03T00:06:30;146694.41;;;6.93;100.00
50226;BME280;36113;50.742;6.432;2023-02-03T00:08:56;146693.13;;;6.92;100.00
50226;BME280;36113;50.742;6.432;2023-02-03T00:11:23;146681.91;;;6.88;100.00
50226;BME280;36113;50.742;6.432;2023-02-03T00:13:48;146689.38;;;6.91;100.00
50226;BME280;36113;50.742;6.432;2023-02-03T00:16:14;146671.88;;;6.84;100.00
50226;BME280;36113;50.742;6.432;2023-02-03T00:18:39;146678.16;;;6.86;100.00
50226;BME280;36113;50.742;6.432;2023-02-03T00:21:05;146664.38;;;6.81;100.00
50226;BME280;36113;50.742;6.432;2023-02-03T00:23:30;146683.16;;;6.88;100.00
50226;BME280;36113;50.742;6.432;2023-02-03T00:25:59;146683.16;;;6.88;100.00
50226;BME280;36113;50.742;6.432;2023-02-03T00:28:30;146690.66;;;6.91;100.00
50226;BME280;36113;50.742;6.432;2023-02-03T00:30:56;146693.13;;;6.92;100.00
50226;BME280;36113;50.742;6.432;2023-02-03T00:33:21;146675.63;;;6.85;100.00
50226;BME280;36113;50.742;6.432;2023-02-03T00:35:46;146683.16;;;6.88;100.00
50226;BME280;36113;50.742;6.432;2023-02-03T00:38:11;146674.41;;;6.85;100.00
50226;BME280;36113;50.742;6.432;2023-02-03T00:40:37;146661.91;;;6.80;100.00
50226;BME280;36113;50.742;6.432;2023-02-03T00:43:02;146676.88;;;6.86;100.00
50226;BME280;36113;50.742;6.432;2023-02-03T00:45:27;146686.91;;;6.90;100.00
50226;BME280;36113;50.742;6.432;2023-02-03T00:47:53;146696.88;;;6.94;100.00
50226;BME280;36113;50.742;6.432;2023-02-03T00:50:18;146681.91;;;6.88;100.00
50226;BME280;36113;50.742;6.432;2023-02-03T00:52:43;146689.38;;;6.91;100.00
50226;BME280;36113;50.742;6.432;2023-02-03T00:55:09;146671.88;;;6.84;100.00
50226;BME280;36113;50.742;6.432;2023-02-03T00:57:34;146685.66;;;6.89;100.00
50226;BME280;36113;50.742;6.432;2023-02-03T00:59:59;146656.94;;;6.78;100.00
50226;BME280;36113;50.742;6.432;2023-02-03T01:02:25;146649.41;;;6.74;100.00
50226;BME280;36113;50.742;6.432;2023-02-03T01:04:50;146669.41;;;6.83;100.00
50226;BME280;36113;50.742;6.432;2023-02-03T01:07:16;146675.63;;;6.85;100.00
50226;BME280;36113;50.742;6.432;2023-02-03T01:09:41;146671.88;;;6.84;100.00
50226;BME280;36113;50.742;6.432;2023-02-03T01:12:07;146669.41;;;6.83;100.00
50226;BME280;36113;50.742;6.432;2023-02-03T01:14:32;146648.19;;;6.74;100.00
50226;BME280;36113;50.742;6.432;2023-02-03T01:16:57;146685.66;;;6.89;100.00
50226;BME280;36113;50.742;6.432;2023-02-03T01:19:23;146698.16;;;6.94;100.00
50226;BME280;36113;50.742;6.432;2023-02-03T01:21:49;146693.13;;;6.92;100.00
50226;BME280;36113;50.742;6.432;2023-02-03T01:24:14;146631.94;;;6.67;100.00
50226;BME280;36113;50.742;6.432;2023-02-03T01:26:40;146683.16;;;6.88;100.00
50226;BME280;36113;50.742;6.432;2023-02-03T01:29:06;146685.66;;;6.89;100.00
50226;BME280;36113;50.742;6.432;2023-02-03T01:31:34;146673.16;;;6.84;100.00
50226;BME280;36113;50.742;6.432;2023-02-03T01:34:01;146673.16;;;6.84;100.00
50226;BME280;36113;50.742;6.432;2023-02-03T01:36:29;146678.16;;;6.86;100.00
50226;BME280;36113;50.742;6.432;2023-02-03T01:38:55;146673.16;;;6.84;100.00
50226;BME280;36113;50.742;6.432;2023-02-03T01:41:27;146640.69;;;6.71;100.00
50226;BME280;36113;50.742;6.432;2023-02-03T01:43:55;146664.38;;;6.81;100.00
50226;BME280;36113;50.742;6.432;2023-02-03T01:46:37;146671.88;;;6.84;100.00
50226;BME280;36113;50.742;6.432;2023-02-03T01:49:05;146668.13;;;6.82;100.00
50226;BME280;36113;50.742;6.432;2023-02-03T01:51:31;146644.44;;;6.72;100.00
50226;BME280;36113;50.742;6.432;2023-02-03T01:53:57;146643.16;;;6.72;100.00
50226;BME280;36113;50.742;6.432;2023-02-03T01:56:26;146654.41;;;6.76;100.00
50226;BME280;36113;50.742;6.432;2023-02-03T01:58:53;146671.88;;;6.84;100.00
50226;BME280;36113;50.742;6.432;2023-02-03T02:01:18;146644.44;;;6.72;100.00
50226;BME280;36113;50.742;6.432;2023-02-03T02:03:55;146650.66;;;6.75;100.00
50226;BME280;36113;50.742;6.432;2023-02-03T02:06:21;146674.41;;;6.85;100.00
50226;BME280;36113;50.742;6.432;2023-02-03T02:08:49;146671.88;;;6.84;100.00
50226;BME280;36113;50.742;6.432;2023-02-03T02:11:15;146676.88;;;6.86;100.00
50226;BME280;36113;50.742;6.432;2023-02-03T02:13:43;146680.63;;;6.87;100.00
50226;BME280;36113;50.742;6.432;2023-02-03T02:22:05;146618.19;;;6.62;100.00
50226;BME280;36113;50.742;6.432;2023-02-03T02:24:49;146696.88;;;6.94;100.00
50226;BME280;36113;50.742;6.432;2023-02-03T02:38:12;146698.16;;;6.94;100.00
50226;BME280;36113;50.742;6.432;2023-02-03T02:43:33;146704.38;;;6.97;100.00
50226;BME280;36113;50.742;6.432;2023-02-03T02:46:12;146691.88;;;6.92;100.00
50226;BME280;36113;50.742;6.432;2023-02-03T02:48:47;146680.63;;;6.87;100.00
50226;BME280;36113;50.742;6.432;2023-02-03T02:51:16;146678.16;;;6.86;100.00
50226;BME280;36113;50.742;6.432;2023-02-03T02:53:50;146646.91;;;6.73;100.00
50226;BME280;36113;50.742;6.432;2023-02-03T02:56:17;146665.66;;;6.81;100.00
50226;BME280;36113;50.742;6.432;2023-02-03T02:58:45;146664.38;;;6.81;100.00
50226;BME280;36113;50.742;6.432;2023-02-03T03:01:13;146645.66;;;6.73;100.00
50226;BME280;36113;50.742;6.432;2023-02-03T03:03:39;146685.66;;;6.89;100.00
50226;BME280;36113;50.742;6.432;2023-02-03T03:08:57;146674.41;;;6.85;100.00
50226;BME280;36113;50.742;6.432;2023-02-03T03:11:26;146681.91;;;6.88;100.00
50226;BME280;36113;50.742;6.432;2023-02-03T03:13:55;146676.88;;;6.86;100.00
50226;BME280;36113;50.742;6.432;2023-02-03T03:16:25;146679.38;;;6.87;100.00
50226;BME280;36113;50.742;6.432;2023-02-03T03:19:00;146646.91;;;6.73;100.00
50226;BME280;36113;50.742;6.432;2023-02-03T03:21:31;146653.19;;;6.76;100.00
50226;BME280;36113;50.742;6.432;2023-02-03T03:24:02;146683.16;;;6.88;100.00
50226;BME280;36113;50.742;6.432;2023-02-03T03:26:34;146679.38;;;6.87;100.00
50226;BME280;36113;50.742;6.432;2023-02-03T03:29:14;146680.63;;;6.87;100.00
50226;BME280;36113;50.742;6.432;2023-02-03T03:31:42;146663.16;;;6.80;100.00
50226;BME280;36113;50.742;6.432;2023-02-03T03:34:09;146671.88;;;6.84;100.00
50226;BME280;36113;50.742;6.432;2023-02-03T03:36:49;146651.91;;;6.75;100.00
50226;BME280;36113;50.742;6.432;2023-02-03T03:42:18;146630.66;;;6.67;100.00
50226;BME280;36113;50.742;6.432;2023-02-03T03:45:15;146676.88;;;6.86;100.00
50226;BME280;36113;50.742;6.432;2023-02-03T03:47:54;146661.91;;;6.80;100.00
50226;BME280;36113;50.742;6.432;2023-02-03T03:50:30;146673.16;;;6.84;100.00
50226;BME280;36113;50.742;6.432;2023-02-03T03:52:59;146668.13;;;6.82;100.00
50226;BME280;36113;50.742;6.432;2023-02-03T03:55:26;146673.16;;;6.84;100.00
50226;BME280;36113;50.742;6.432;2023-02-03T03:57:58;146669.41;;;6.83;100.00
50226;BME280;36113;50.742;6.432;2023-02-03T04:00:27;146676.88;;;6.86;100.00
50226;BME280;36113;50.742;6.432;2023-02-03T04:02:54;146681.91;;;6.88;100.00
50226;BME280;36113;50.742;6.432;2023-02-03T04:05:21;146673.16;;;6.84;100.00
50226;BME280;36113;50.742;6.432;2023-02-03T04:07:47;146676.88;;;6.86;100.00
50226;BME280;36113;50.742;6.432;2023-02-03T04:12:53;146681.91;;;6.88;100.00
50226;BME280;36113;50.742;6.432;2023-02-03T04:15:18;146675.63;;;6.85;100.00
50226;BME280;36113;50.742;6.432;2023-02-03T04:17:43;146661.91;;;6.80;100.00
50226;BME280;36113;50.742;6.432;2023-02-03T04:20:09;146666.91;;;6.82;100.00
50226;BME280;36113;50.742;6.432;2023-02-03T04:22:35;146683.16;;;6.88;100.00
50226;BME280;36113;50.742;6.432;2023-02-03T04:25:00;146674.41;;;6.85;100.00
50226;BME280;36113;50.742;6.432;2023-02-03T04:27:26;146671.88;;;6.84;100.00
50226;BME280;36113;50.742;6.432;2023-02-03T04:29:51;146674.41;;;6.85;100.00
50226;BME280;36113;50.742;6.432;2023-02-03T04:32:17;146666.91;;;6.82;100.00
50226;BME280;36113;50.742;6.432;2023-02-03T04:34:42;146659.41;;;6.79;100.00
50226;BME280;36113;50.742;6.432;2023-02-03T04:37:07;146665.66;;;6.81;100.00
50226;BME280;36113;50.742;6.432;2023-02-03T04:39:32;146663.16;;;6.80;100.00
50226;BME280;36113;50.742;6.432;2023-02-03T04:41:58;146661.91;;;6.80;100.00
50226;BME280;36113;50.742;6.432;2023-02-03T04:44:23;146663.16;;;6.80;100.00
50226;BME280;36113;50.742;6.432;2023-02-03T04:46:48;146659.41;;;6.79;100.00
50226;BME280;36113;50.742;6.432;2023-02-03T04:49:14;146671.88;;;6.84;100.00
50226;BME280;36113;50.742;6.432;2023-02-03T04:51:39;146654.41;;;6.76;100.00
50226;BME280;36113;50.742;6.432;2023-02-03T04:54:04;146671.88;;;6.84;100.00
50226;BME280;36113;50.742;6.432;2023-02-03T04:56:30;146668.13;;;6.82;100.00
50226;BME280;36113;50.742;6.432;2023-02-03T04:58:55;146655.66;;;6.77;100.00
50226;BME280;36113;50.742;6.432;2023-02-03T05:01:20;146669.41;;;6.83;100.00
50226;BME280;36113;50.742;6.432;2023-02-03T05:03:46;146644.44;;;6.72;100.00
50226;BME280;36113;50.742;6.432;2023-02-03T05:06:11;146673.16;;;6.84;100.00
50226;BME280;36113;50.742;6.432;2023-02-03T05:08:36;146678.16;;;6.86;100.00
50226;BME280;36113;50.742;6.432;2023-02-03T05:11:02;146683.16;;;6.88;100.00
50226;BME280;36113;50.742;6.432;2023-02-03T05:13:27;146685.66;;;6.89;100.00
50226;BME280;36113;50.742;6.432;2023-02-03T05:15:52;146680.63;;;6.87;100.00
50226;BME280;36113;50.742;6.432;2023-02-03T05:18:18;146674.41;;;6.85;100.00
50226;BME280;36113;50.742;6.432;2023-02-03T05:20:43;146674.41;;;6.85;100.00
50226;BME280;36113;50.742;6.432;2023-02-03T05:23:08;146678.16;;;6.86;100.00
50226;BME280;36113;50.742;6.432;2023-02-03T05:25:34;146666.91;;;6.82;100.00
50226;BME280;36113;50.742;6.432;2023-02-03T05:27:59;146674.41;;;6.85;100.00
50226;BME280;36113;50.742;6.432;2023-02-03T05:30:24;146675.63;;;6.85;100.00
50226;BME280;36113;50.742;6.432;2023-02-03T05:32:50;146679.38;;;6.87;100.00
50226;BME280;36113;50.742;6.432;2023-02-03T05:35:15;146681.91;;;6.88;100.00
50226;BME280;36113;50.742;6.432;2023-02-03T05:37:43;146680.63;;;6.87;100.00
50226;BME280;36113;50.742;6.432;2023-02-03T05:40:09;146689.38;;;6.91;100.00
50226;BME280;36113;50.742;6.432;2023-02-03T05:42:53;146685.66;;;6.89;100.00
50226;BME280;36113;50.742;6.432;2023-02-03T05:45:18;146660.69;;;6.79;100.00
50226;BME280;36113;50.742;6.432;2023-02-03T05:47:44;146660.69;;;6.79;100.00
50226;BME280;36113;50.742;6.432;2023-02-03T05:50:09;146680.63;;;6.87;100.00
50226;BME280;36113;50.742;6.432;2023-02-03T05:52:34;146675.63;;;6.85;100.00
50226;BME280;36113;50.742;6.432;2023-02-03T05:55:00;146676.88;;;6.86;100.00
50226;BME280;36113;50.742;6.432;2023-02-03T05:57:25;146668.13;;;6.82;100.00
50226;BME280;36113;50.742;6.432;2023-02-03T05:59:50;146683.16;;;6.88;100.00
50226;BME280;36113;50.742;6.432;2023-02-03T06:02:16;146679.38;;;6.87;100.00
50226;BME280;36113;50.742;6.432;2023-02-03T06:04:41;146690.66;;;6.91;100.00
50226;BME280;36113;50.742;6.432;2023-02-03T06:07:06;146676.88;;;6.86;100.00
50226;BME280;36113;50.742;6.432;2023-02-03T06:09:32;146686.91;;;6.90;100.00
50226;BME280;36113;50.742;6.432;2023-02-03T06:11:57;146694.41;;;6.93;100.00
50226;BME280;36113;50.742;6.432;2023-02-03T06:14:22;146690.66;;;6.91;100.00
50226;BME280;36113;50.742;6.432;2023-02-03T06:16:48;146694.41;;;6.93;100.00
50226;BME280;36113;50.742;6.432;2023-02-03T06:19:13;146696.88;;;6.94;100.00
50226;BME280;36113;50.742;6.432;2023-02-03T06:21:38;146684.38;;;6.89;100.00
50226;BME280;36113;50.742;6.432;2023-02-03T06:24:03;146646.91;;;6.73;100.00
50226;BME280;36113;50.742;6.432;2023-02-03T06:26:29;146640.69;;;6.71;100.00
50226;BME280;36113;50.742;6.432;2023-02-03T06:28:54;146680.63;;;6.87;100.00
50226;BME280;36113;50.742;6.432;2023-02-03T06:31:20;146693.13;;;6.92;100.00
50226;BME280;36113;50.742;6.432;2023-02-03T06:33:45;146688.13;;;6.90;100.00
50226;BME280;36113;50.742;6.432;2023-02-03T06:36:10;146655.66;;;6.77;100.00
50226;BME280;36113;50.742;6.432;2023-02-03T06:38:35;146679.38;;;6.87;100.00
50226;BME280;36113;50.742;6.432;2023-02-03T06:41:01;146680.63;;;6.87;100.00
50226;BME280;36113;50.742;6.432;2023-02-03T06:43:26;146668.13;;;6.82;100.00
50226;BME280;36113;50.742;6.432;2023-02-03T06:45:51;146669.41;;;6.83;100.00
50226;BME280;36113;50.742;6.432;2023-02-03T06:48:17;146680.63;;;6.87;100.00
50226;BME280;36113;50.742;6.432;2023-02-03T06:50:44;146683.16;;;6.88;100.00
50226;BME280;36113;50.742;6.432;2023-02-03T06:53:09;146669.41;;;6.83;100.00
50226;BME280;36113;50.742;6.432;2023-02-03T06:55:34;146669.41;;;6.83;100.00
50226;BME280;36113;50.742;6.432;2023-02-03T06:58:00;146673.16;;;6.84;100.00
50226;BME280;36113;50.742;6.432;2023-02-03T07:00:25;146645.66;;;6.73;100.00
50226;BME280;36113;50.742;6.432;2023-02-03T07:02:54;146671.88;;;6.84;100.00
50226;BME280;36113;50.742;6.432;2023-02-03T07:05:21;146675.63;;;6.85;100.00
50226;BME280;36113;50.742;6.432;2023-02-03T07:07:47;146679.38;;;6.87;100.00
50226;BME280;36113;50.742;6.432;2023-02-03T07:10:12;146649.41;;;6.74;100.00
50226;BME280;36113;50.742;6.432;2023-02-03T07:12:37;146678.16;;;6.86;100.00
50226;BME280;36113;50.742;6.432;2023-02-03T07:15:03;146673.16;;;6.84;100.00
50226;BME280;36113;50.742;6.432;2023-02-03T07:17:29;146676.88;;;6.86;100.00
50226;BME280;36113;50.742;6.432;2023-02-03T07:19:54;146684.38;;;6.89;100.00
50226;BME280;36113;50.742;6.432;2023-02-03T07:22:20;146676.88;;;6.86;100.00
50226;BME280;36113;50.742;6.432;2023-02-03T07:24:45;146686.91;;;6.90;100.00
50226;BME280;36113;50.742;6.432;2023-02-03T07:27:10;146660.69;;;6.79;100.00
50226;BME280;36113;50.742;6.432;2023-02-03T07:29:35;146633.19;;;6.68;100.00
50226;BME280;36113;50.742;6.432;2023-02-03T07:32:01;146684.38;;;6.89;100.00
50226;BME280;36113;50.742;6.432;2023-02-03T07:34:27;146696.88;;;6.94;100.00
50226;BME280;36113;50.742;6.432;2023-02-03T07:36:52;146669.41;;;6.83;100.00
50226;BME280;36113;50.742;6.432;2023-02-03T07:39:17;146718.09;;;7.03;100.00
50226;BME280;36113;50.742;6.432;2023-02-03T07:41:42;146720.63;;;7.04;100.00
50226;BME280;36113;50.742;6.432;2023-02-03T07:44:08;146681.91;;;6.88;100.00
50226;BME280;36113;50.742;6.432;2023-02-03T07:46:33;146726.84;;;7.06;100.00
50226;BME280;36113;50.742;6.432;2023-02-03T07:48:59;146711.88;;;7.00;100.00
50226;BME280;36113;50.742;6.432;2023-02-03T07:51:24;146705.59;;;6.98;100.00
50226;BME280;36113;50.742;6.432;2023-02-03T07:53:50;146719.38;;;7.03;100.00
50226;BME280;36113;50.742;6.432;2023-02-03T07:56:16;146750.59;;;7.16;100.00
50226;BME280;36113;50.742;6.432;2023-02-03T07:58:41;146708.13;;;6.99;100.00
50226;BME280;36113;50.742;6.432;2023-02-03T08:01:12;146713.13;;;7.01;100.00
50226;BME280;36113;50.742;6.432;2023-02-03T08:03:37;146746.84;;;7.14;100.00
50226;BME280;36113;50.742;6.432;2023-02-03T08:06:03;146756.88;;;7.19;100.00
50226;BME280;36113;50.742;6.432;2023-02-03T08:08:28;146729.34;;;7.07;100.00
50226;BME280;36113;50.742;6.432;2023-02-03T08:10:54;146776.81;;;7.27;100.00
50226;BME280;36113;50.742;6.432;2023-02-03T08:13:20;146783.09;;;7.29;100.00
50226;BME280;36113;50.742;6.432;2023-02-03T08:15:46;146761.84;;;7.21;100.00
50226;BME280;36113;50.742;6.432;2023-02-03T08:18:12;146738.09;;;7.11;100.00
50226;BME280;36113;50.742;6.432;2023-02-03T08:20:37;146736.88;;;7.10;100.00
50226;BME280;36113;50.742;6.432;2023-02-03T08:23:02;146771.81;;;7.25;100.00
50226;BME280;36113;50.742;6.432;2023-02-03T08:25:28;146781.84;;;7.29;100.00
50226;BME280;36113;50.742;6.432;2023-02-03T08:27:53;146761.84;;;7.21;100.00
50226;BME280;36113;50.742;6.432;2023-02-03T08:30:18;146793.06;;;7.33;100.00
50226;BME280;36113;50.742;6.432;2023-02-03T08:32:43;146754.34;;;7.18;100.00
50226;BME280;36113;50.742;6.432;2023-02-03T08:35:09;146788.06;;;7.31;100.00
50226;BME280;36113;50.742;6.432;2023-02-03T08:37:34;146801.81;;;7.37;100.00
50226;BME280;36113;50.742;6.432;2023-02-03T08:40:00;146724.38;;;7.05;100.00
50226;BME280;36113;50.742;6.432;2023-02-03T08:42:25;146811.84;;;7.41;100.00
50226;BME280;36113;50.742;6.432;2023-02-03T08:44:50;146774.34;;;7.26;100.00
50226;BME280;36113;50.742;6.432;2023-02-03T08:47:16;146816.81;;;7.43;100.00
50226;BME280;36113;50.742;6.432;2023-02-03T08:49:41;146824.31;;;7.46;100.00
50226;BME280;36113;50.742;6.432;2023-02-03T08:52:09;146818.06;;;7.44;100.00
50226;BME280;36113;50.742;6.432;2023-02-03T08:54:34;146819.34;;;7.44;100.00
50226;BME280;36113;50.742;6.432;2023-02-03T08:57:00;146839.28;;;7.53;100.00
50226;BME280;36113;50.742;6.432;2023-02-03T08:59:25;146809.31;;;7.40;100.00
50226;BME280;36113;50.742;6.432;2023-02-03T09:01:51;146811.84;;;7.41;100.00
50226;BME280;36113;50.742;6.432;2023-02-03T09:04:18;146833.06;;;7.50;100.00
50226;BME280;36113;50.742;6.432;2023-02-03T09:06:46;146804.31;;;7.38;100.00
50226;BME280;36113;50.742;6.432;2023-02-03T09:09:13;146828.09;;;7.48;100.00
50226;BME280;36113;50.742;6.432;2023-02-03T09:11:39;146801.81;;;7.37;100.00
50226;BME280;36113;50.742;6.432;2023-02-03T09:14:05;146805.56;;;7.39;100.00
50226;BME280;36113;50.742;6.432;2023-02-03T09:16:30;146795.59;;;7.35;100.00
50226;BME280;36113;50.742;6.432;2023-02-03T09:18:55;146819.34;;;7.44;100.00
50226;BME280;36113;50.742;6.432;2023-02-03T09:21:21;146821.81;;;7.45;100.00
50226;BME280;36113;50.742;6.432;2023-02-03T09:23:46;146836.81;;;7.51;100.00
50226;BME280;36113;50.742;6.432;2023-02-03T09:26:13;146841.81;;;7.54;100.00
50226;BME280;36113;50.742;6.432;2023-02-03T09:28:39;146805.56;;;7.39;100.00
50226;BME280;36113;50.742;6.432;2023-02-03T09:31:13;146841.81;;;7.54;100.00
50226;BME280;36113;50.742;6.432;2023-02-03T09:33:39;146830.56;;;7.49;100.00
50226;BME280;36113;50.742;6.432;2023-02-03T09:36:06;146861.81;;;7.62;100.00
50226;BME280;36113;50.742;6.432;2023-02-03T09:38:32;146873.03;;;7.66;100.00
50226;BME280;36113;50.742;6.432;2023-02-03T09:43:34;146894.28;;;7.75;100.00
50226;BME280;36113;50.742;6.432;2023-02-03T09:46:06;146899.31;;;7.77;100.00
50226;BME280;36113;50.742;6.432;2023-02-03T09:48:42;146880.53;;;7.69;100.00
50226;BME280;36113;50.742;6.432;2023-02-03T09:51:28;146904.31;;;7.79;100.00
50226;BME280;36113;50.742;6.432;2023-02-03T09:54:04;146854.31;;;7.59;100.00
50226;BME280;36113;50.742;6.432;2023-02-03T09:56:33;146860.53;;;7.61;100.00
50226;BME280;36113;50.742;6.432;2023-02-03T09:59:01;146904.31;;;7.79;100.00
50226;BME280;36113;50.742;6.432;2023-02-03T10:01:38;146889.28;;;7.73;100.00
50226;BME280;36113;50.742;6.432;2023-02-03T10:04:36;146881.78;;;7.70;100.00
50226;BME280;36113;50.742;6.432;2023-02-03T10:07:19;146855.56;;;7.59;100.00
50226;BME280;36113;50.742;6.432;2023-02-03T10:09:59;146850.56;;;7.57;100.00
50226;BME280;36113;50.742;6.432;2023-02-03T10:12:53;146886.81;;;7.72;100.00
50226;BME280;36113;50.742;6.432;2023-02-03T10:18:05;146858.06;;;7.60;100.00
50226;BME280;36113;50.742;6.432;2023-02-03T10:20:38;146869.28;;;7.65;100.00
50226;BME280;36113;50.742;6.432;2023-02-03T10:23:38;146860.53;;;7.61;100.00
50226;BME280;36113;50.742;6.432;2023-02-03T10:26:08;146859.31;;;7.61;100.00
50226;BME280;36113;50.742;6.432;2023-02-03T10:28:39;146863.06;;;7.62;100.00
50226;BME280;36113;50.742;6.432;2023-02-03T10:31:16;146808.06;;;7.40;100.00
50226;BME280;36113;50.742;6.432;2023-02-03T10:33:42;146830.56;;;7.49;100.00
50226;BME280;36113;50.742;6.432;2023-02-03T10:36:20;146855.56;;;7.59;100.00
50226;BME280;36113;50.742;6.432;2023-02-03T10:38:49;146874.31;;;7.67;100.00
50226;BME280;36113;50.742;6.432;2023-02-03T10:41:19;146898.03;;;7.77;100.00
50226;BME280;36113;50.742;6.432;2023-02-03T10:43:45;146905.53;;;7.80;100.00
50226;BME280;36113;50.742;6.432;2023-02-03T10:46:14;146946.81;;;7.97;100.00
50226;BME280;36113;50.742;6.432;2023-02-03T10:48:40;146954.31;;;8.00;100.00
50226;BME280;36113;50.742;6.432;2023-02-03T10:51:17;146923.03;;;7.87;100.00
50226;BME280;36113;50.742;6.432;2023-02-03T10:53:43;146969.28;;;8.06;100.00
50226;BME280;36113;50.742;6.432;2023-02-03T10:56:12;146975.56;;;8.08;100.00
50226;BME280;36113;50.742;6.432;2023-02-03T10:58:45;146993.06;;;8.16;100.00
50226;BME280;36113;50.742;6.432;2023-02-03T11:01:13;146966.81;;;8.05;100.00
50226;BME280;36113;50.742;6.432;2023-02-03T11:03:44;146975.56;;;8.08;100.00
50226;BME280;36113;50.742;6.432;2023-02-03T11:06:17;146989.31;;;8.14;100.00
50226;BME280;36113;50.742;6.432;2023-02-03T11:08:45;146998.06;;;8.18;100.00
50226;BME280;36113;50.742;6.432;2023-02-03T11:11:26;147000.56;;;8.19;100.00
50226;BME280;36113;50.742;6.432;2023-02-03T11:16:28;146996.81;;;8.17;100.00
50226;BME280;36113;50.742;6.432;2023-02-03T11:18:56;146961.81;;;8.03;100.00
50226;BME280;36113;50.742;6.432;2023-02-03T11:21:29;146993.06;;;8.16;100.00
50226;BME280;36113;50.742;6.432;2023-02-03T11:24:01;147043.06;;;8.36;100.00
50226;BME280;36113;50.742;6.432;2023-02-03T11:26:33;147068.13;;;8.47;100.00
50226;BME280;36113;50.742;6.432;2023-02-03T11:29:00;147070.66;;;8.48;100.00
50226;BME280;36113;50.742;6.432;2023-02-03T11:31:32;147080.63;;;8.52;100.00
50226;BME280;36113;50.742;6.432;2023-02-03T11:34:06;147079.41;;;8.51;100.00
50226;BME280;36113;50.742;6.432;2023-02-03T11:36:39;147054.34;;;8.41;100.00
50226;BME280;36113;50.742;6.432;2023-02-03T11:39:26;147050.59;;;8.39;100.00
50226;BME280;36113;50.742;6.432;2023-02-03T11:41:52;147024.34;;;8.29;100.00
50226;BME280;36113;50.742;6.432;2023-02-03T11:44:22;147044.31;;;8.37;100.00
50226;BME280;36113;50.742;6.432;2023-02-03T11:46:52;147001.81;;;8.19;100.00
50226;BME280;36113;50.742;6.432;2023-02-03T11:55:20;146991.81;;;8.15;100.00
50226;BME280;36113;50.742;6.432;2023-02-03T11:58:03;146984.31;;;8.12;100.00
50226;BME280;36113;50.742;6.432;2023-02-03T12:01:05;146939.28;;;7.94;100.00
50226;BME280;36113;50.742;6.432;2023-02-03T12:09:43;146945.56;;;7.96;100.00
50226;BME280;36113;50.742;6.432;2023-02-03T12:12:43;146939.28;;;7.94;100.00
50226;BME280;36113;50.742;6.432;2023-02-03T12:15:20;146954.31;;;8.00;100.00
50226;BME280;36113;50.742;6.432;2023-02-03T12:20:59;146946.81;;;7.97;100.00
50226;BME280;36113;50.742;6.432;2023-02-03T12:26:44;146945.56;;;7.96;100.00
50226;BME280;36113;50.742;6.432;2023-02-03T12:31:48;146934.31;;;7.92;100.00
50226;BME280;36113;50.742;6.432;2023-02-03T12:34:28;146901.78;;;7.78;100.00
50226;BME280;36113;50.742;6.432;2023-02-03T12:39:34;146909.31;;;7.81;100.00
50226;BME280;36113;50.742;6.432;2023-02-03T12:42:12;146891.81;;;7.74;100.00
50226;BME280;36113;50.742;6.432;2023-02-03T12:44:51;146941.81;;;7.95;100.00
50226;BME280;36113;50.742;6.432;2023-02-03T12:47:25;146884.31;;;7.71;100.00
50226;BME280;36113;50.742;6.432;2023-02-03T12:49:56;146913.06;;;7.83;100.00
50226;BME280;36113;50.742;6.432;2023-02-03T12:52:35;146904.31;;;7.79;100.00
50226;BME280;36113;50.742;6.432;2023-02-03T12:57:57;146866.81;;;7.64;100.00
50226;BME280;36113;50.742;6.432;2023-02-03T13:00:45;146870.56;;;7.65;100.00
50226;BME280;36113;50.742;6.432;2023-02-03T13:03:27;146789.31;;;7.32;100.00
50226;BME280;36113;50.742;6.432;2023-02-03T13:06:28;146834.31;;;7.50;100.00
50226;BME280;36113;50.742;6.432;2023-02-03T13:09:01;146841.81;;;7.54;100.00
50226;BME280;36113;50.742;6.432;2023-02-03T13:11:38;146841.81;;;7.54;100.00
50226;BME280;36113;50.742;6.432;2023-02-03T13:14:31;146838.06;;;7.52;100.00
50226;BME280;36113;50.742;6.432;2023-02-03T13:17:13;146830.56;;;7.49;100.00
50226;BME280;36113;50.742;6.432;2023-02-03T13:20:01;146819.34;;;7.44;100.00
50226;BME280;36113;50.742;6.432;2023-02-03T13:22:28;146816.81;;;7.43;100.00
50226;BME280;36113;50.742;6.432;2023-02-03T13:28:17;146804.31;;;7.38;100.00
50226;BME280;36113;50.742;6.432;2023-02-03T13:37:22;146773.06;;;7.25;100.00
50226;BME280;36113;50.742;6.432;2023-02-03T13:40:07;146780.56;;;7.28;100.00
50226;BME280;36113;50.742;6.432;2023-02-03T13:42:43;146774.34;;;7.26;100.00
50226;BME280;36113;50.742;6.432;2023-02-03T13:47:50;146769.34;;;7.24;100.00
50226;BME280;36113;50.742;6.432;2023-02-03T13:50:27;146754.34;;;7.18;100.00
50226;BME280;36113;50.742;6.432;2023-02-03T13:55:41;146748.06;;;7.15;100.00
50226;BME280;36113;50.742;6.432;2023-02-03T13:58:27;146749.34;;;7.16;100.00
50226;BME280;36113;50.742;6.432;2023-02-03T14:01:01;146734.34;;;7.09;100.00
50226;BME280;36113;50.742;6.432;2023-02-03T14:05:56;146744.38;;;7.13;100.00
50226;BME280;36113;50.742;6.432;2023-02-03T14:08:40;146751.81;;;7.17;100.00
50226;BME280;36113;50.742;6.432;2023-02-03T14:16:37;146735.59;;;7.10;100.00
50226;BME280;36113;50.742;6.432;2023-02-03T14:19:03;146714.34;;;7.01;100.00
50226;BME280;36113;50.742;6.432;2023-02-03T14:24:10;146746.84;;;7.14;100.00
50226;BME280;36113;50.742;6.432;2023-02-03T14:29:07;146741.84;;;7.12;100.00
50226;BME280;36113;50.742;6.432;2023-02-03T14:31:57;146753.13;;;7.17;100.00